Reflections — 6YSO7 — position and weather

sailwx.info

Track history (hours):
 
Tides and Currents Weather Stations Pressure Air Temp Water Temp Dewpoint Dewpoint Depression Visibility Wind Speed Wind Dir Waves Ship Positions

Reflections

Last reported at 2018-May-13 03:38 UTC. Time now 2018-Jun-20 02:01 UTC.
Position N 17°51' W 063°30'.
Warning: this ship's position is 37 days out of date.

Length 33 m; draft 2.3 m.

Type: Pleasure craft. MMSI: 339463000.

Date/timePositionNaut miles runAvg speedWind from/ knotsBaromVisibWave heightAir tempDewpointWater temp
2018-May-13 03:38N 17°51' W 063°30'310.1
2018-May-13 03:23N 17°50' W 063°28'4 9.6
2018-May-13 02:59N 17°48' W 063°24'6 9.7
2018-May-13 02:25N 17°46' W 063°19'4 9.6
2018-May-13 01:59N 17°44' W 063°15'5 9.6
2018-May-13 01:28N 17°43' W 063°10'5 9.6
2018-May-13 00:56N 17°41' W 063°05'510.1
2018-May-13 00:29N 17°39' W 063°01'45 9.7
2018-May-12 19:51N 17°15' W 062°21'310.2
2018-May-12 19:30N 17°13' W 062°18'5 9.9
2018-May-12 19:00N 17°11' W 062°13'510.0
2018-May-12 18:30N 17°08' W 062°09'510.2
2018-May-12 18:00N 17°06' W 062°04'510.2
2018-May-12 17:30N 17°03' W 061°59'510.4
2018-May-12 17:00N 17°01' W 061°55'510.0
2018-May-12 16:30N 16°60' W 061°50'3 6.7
2018-May-12 16:00N 17°01' W 061°46'0 0.0
2018-May-12 15:29N 17°01' W 061°46'0 0.0
2018-May-12 14:59N 17°01' W 061°46'0 0.0
2018-May-12 14:29N 17°01' W 061°46'0 0.0
2018-May-12 13:59N 17°01' W 061°46'0 0.0
2018-May-12 13:29N 17°01' W 061°46'0 0.0
2018-May-12 12:59N 17°01' W 061°46'0 0.0
2018-May-12 12:29N 17°01' W 061°46'0 0.0
2018-May-12 11:59N 17°01' W 061°46'0 0.0
2018-May-12 11:29N 17°01' W 061°46'0 0.0
2018-May-12 10:59N 17°01' W 061°46'0 0.0
2018-May-12 10:29N 17°01' W 061°46'0 0.0
2018-May-12 09:59N 17°01' W 061°46'0 0.0
2018-May-12 09:29N 17°01' W 061°46'0 0.0
2018-May-12 08:59N 17°01' W 061°46'0 0.0
2018-May-12 08:29N 17°01' W 061°46'0 0.0
2018-May-12 07:59N 17°01' W 061°46'0 0.0
2018-May-12 07:29N 17°01' W 061°46'0 0.0
2018-May-12 06:59N 17°01' W 061°46'0 0.0
2018-May-12 06:29N 17°01' W 061°46'0 0.0
2018-May-12 05:59N 17°01' W 061°46'0 0.0
2018-May-12 05:29N 17°01' W 061°46'0 0.0
2018-May-12 04:59N 17°01' W 061°46'0 0.0
2018-May-12 04:29N 17°01' W 061°46'0 0.0
2018-May-12 03:59N 17°01' W 061°46'0 0.0
2018-May-12 03:29N 17°01' W 061°46'0 0.0
2018-May-12 02:59N 17°01' W 061°46'0 0.0
2018-May-12 02:29N 17°01' W 061°46'0 0.0
2018-May-12 01:59N 17°01' W 061°46'0 0.0
2018-May-12 01:29N 17°01' W 061°46'0 0.0
2018-May-12 00:59N 17°01' W 061°46'0 0.0
2018-May-12 00:29N 17°01' W 061°46'0 0.0
2018-May-11 23:59N 17°01' W 061°46'0 0.0
2018-May-11 23:29N 17°01' W 061°46'0 0.0
2018-May-11 22:59N 17°01' W 061°46'0 0.0
2018-May-11 22:29N 17°01' W 061°46'0 0.0
2018-May-11 21:59N 17°01' W 061°46'0 0.0
2018-May-11 21:29N 17°01' W 061°46'0 0.0
2018-May-11 20:59N 17°01' W 061°46'0 0.0
2018-May-11 20:29N 17°01' W 061°46'0 0.0
2018-May-11 19:59N 17°01' W 061°46'0 0.0
2018-May-11 19:29N 17°01' W 061°46'0 0.0
2018-May-11 18:59N 17°01' W 061°46'0 0.0
2018-May-11 18:29N 17°01' W 061°46'0 0.0
2018-May-11 17:59N 17°01' W 061°46'0 0.0
2018-May-11 17:29N 17°01' W 061°46'0 0.0
2018-May-11 16:59N 17°01' W 061°46'0 0.0
2018-May-11 16:29N 17°01' W 061°46'0 0.0
2018-May-11 15:59N 17°01' W 061°46'0 0.0
2018-May-11 15:29N 17°01' W 061°46'0 0.0
2018-May-11 14:59N 17°01' W 061°46'0 0.0
2018-May-11 14:29N 17°01' W 061°46'0 0.0
2018-May-11 13:59N 17°01' W 061°46'0 0.0
2018-May-11 13:29N 17°01' W 061°46'0 0.0
2018-May-11 12:59N 17°01' W 061°46'0 0.0
2018-May-11 12:29N 17°01' W 061°46'0 0.0
2018-May-11 11:59N 17°01' W 061°46'0 0.0
2018-May-11 11:29N 17°01' W 061°46'0 0.0
2018-May-11 10:59N 17°01' W 061°46'0 0.0
2018-May-11 10:29N 17°01' W 061°46'0 0.0
2018-May-11 09:59N 17°01' W 061°46'0 0.0
2018-May-11 09:29N 17°01' W 061°46'0 0.0
2018-May-11 08:59N 17°01' W 061°46'0 0.0
2018-May-11 08:29N 17°01' W 061°46'0 0.0
2018-May-11 07:59N 17°01' W 061°46'0 0.0
2018-May-11 07:29N 17°01' W 061°46'0 0.0
2018-May-11 06:59N 17°01' W 061°46'0 0.0
2018-May-11 06:29N 17°01' W 061°46'0 0.0
2018-May-11 05:53N 17°01' W 061°46'0 0.0
2018-May-11 05:29N 17°01' W 061°46'0 0.0
2018-May-11 04:59N 17°01' W 061°46'0 0.0
2018-May-11 04:29N 17°01' W 061°46'0 0.0
2018-May-11 03:59N 17°01' W 061°46'0 0.0
2018-May-11 03:29N 17°01' W 061°46'0 0.0
2018-May-11 02:59N 17°01' W 061°46'0 0.0
2018-May-11 02:29N 17°01' W 061°46'0 0.0
2018-May-11 01:59N 17°01' W 061°46'0 0.0
2018-May-11 01:29N 17°01' W 061°46'0 0.0
2018-May-11 00:59N 17°01' W 061°46'0 0.0
2018-May-11 00:29N 17°01' W 061°46'0 0.0
2018-May-10 23:59N 17°01' W 061°46'0 0.0
2018-May-10 23:29N 17°01' W 061°46'0 0.0
2018-May-10 22:59N 17°01' W 061°46'0 0.0
2018-May-10 22:29N 17°01' W 061°46'0 0.0
2018-May-10 21:59N 17°01' W 061°46'0 0.0
2018-May-10 21:29N 17°01' W 061°46'0 0.0
2018-May-10 20:59N 17°01' W 061°46'0 0.0
2018-May-10 20:29N 17°01' W 061°46'0 0.0
2018-May-10 19:59N 17°01' W 061°46'0 0.0
2018-May-10 19:29N 17°01' W 061°46'0 0.0
2018-May-10 18:59N 17°01' W 061°46'0 0.0
2018-May-10 18:29N 17°01' W 061°46'0 0.0
2018-May-10 17:59N 17°01' W 061°46'0 0.0
2018-May-10 17:29N 17°01' W 061°46'0 0.0
2018-May-10 16:59N 17°01' W 061°46'0 0.0
2018-May-10 16:23N 17°01' W 061°46'0 0.0
2018-May-10 15:59N 17°01' W 061°46'0 0.0
2018-May-10 15:29N 17°01' W 061°46'0 0.0
2018-May-10 14:59N 17°01' W 061°46'0 0.0
2018-May-10 14:29N 17°01' W 061°46'0 0.0
2018-May-10 13:59N 17°01' W 061°46'0 0.0
2018-May-10 13:29N 17°01' W 061°46'0 0.0
2018-May-10 12:59N 17°01' W 061°46'0 0.0
2018-May-10 12:29N 17°01' W 061°46'0 0.0
2018-May-10 11:59N 17°01' W 061°46'0 0.0
2018-May-10 11:29N 17°01' W 061°46'0 0.0
2018-May-10 10:59N 17°01' W 061°46'0 0.0
2018-May-10 10:29N 17°01' W 061°46'0 0.0
2018-May-10 09:59N 17°01' W 061°46'0 0.0
2018-May-10 09:29N 17°01' W 061°46'0 0.0
2018-May-10 08:59N 17°01' W 061°46'0 0.0
2018-May-10 08:29N 17°01' W 061°46'0 0.0
2018-May-10 07:59N 17°01' W 061°46'0 0.0
2018-May-10 07:29N 17°01' W 061°46'0 0.0
2018-May-10 06:59N 17°01' W 061°46'0 0.0
2018-May-10 06:29N 17°01' W 061°46'0 0.0
2018-May-10 05:59N 17°01' W 061°46'0 0.0
2018-May-10 05:29N 17°01' W 061°46'0 0.0
2018-May-10 04:59N 17°01' W 061°46'0 0.0
2018-May-10 04:29N 17°01' W 061°46'0 0.0
2018-May-10 03:59N 17°01' W 061°46'0 0.0
2018-May-10 03:29N 17°01' W 061°46'0 0.0
2018-May-10 02:59N 17°01' W 061°46'0 0.0
2018-May-10 02:29N 17°01' W 061°46'0 0.0
2018-May-10 01:59N 17°01' W 061°46'0 0.0
2018-May-10 01:29N 17°01' W 061°46'0 0.0
2018-May-10 00:59N 17°01' W 061°46'0 0.0
2018-May-10 00:29N 17°01' W 061°46'0 0.0
2018-May-09 23:59N 17°01' W 061°46'0 0.0
2018-May-09 23:29N 17°01' W 061°46'0 0.0
2018-May-09 22:59N 17°01' W 061°46'0 0.0
2018-May-09 22:29N 17°01' W 061°46'0 0.0
2018-May-09 21:59N 17°01' W 061°46'0 0.0
2018-May-09 21:29N 17°01' W 061°46'0 0.0
2018-May-09 20:59N 17°01' W 061°46'0 0.0
2018-May-09 20:29N 17°01' W 061°46'0 0.0
2018-May-09 19:59N 17°01' W 061°46'0 0.0
2018-May-09 19:29N 17°01' W 061°46'0 0.0
2018-May-09 18:59N 17°01' W 061°46'0 0.0
2018-May-09 18:29N 17°01' W 061°46'0 0.0
2018-May-09 17:59N 17°01' W 061°46'0 0.0
2018-May-09 17:29N 17°01' W 061°46'0 0.0
2018-May-09 16:59N 17°01' W 061°46'0 0.0
2018-May-09 16:29N 17°01' W 061°46'0 0.0
2018-May-09 15:59N 17°01' W 061°46'0 0.0
2018-May-09 15:29N 17°01' W 061°46'0 0.0
2018-May-09 14:59N 17°01' W 061°46'0 0.0
2018-May-09 14:29N 17°01' W 061°46'0 0.0
2018-May-09 13:59N 17°01' W 061°46'0 0.0
2018-May-09 13:29N 17°01' W 061°46'0 0.0
2018-May-09 12:59N 17°01' W 061°46'0 0.0
2018-May-09 12:29N 17°01' W 061°46'0 0.0
2018-May-09 11:59N 17°01' W 061°46'0 0.0
2018-May-09 11:29N 17°01' W 061°46'0 0.0
2018-May-09 10:59N 17°01' W 061°46'0 0.0
2018-May-09 10:29N 17°01' W 061°46'0 0.0
2018-May-09 09:59N 17°01' W 061°46'0 0.0
2018-May-09 09:29N 17°01' W 061°46'0 0.0
2018-May-09 08:59N 17°01' W 061°46'0 0.0
2018-May-09 08:29N 17°01' W 061°46'0 0.0
2018-May-09 07:59N 17°01' W 061°46'0 0.0
2018-May-09 07:29N 17°01' W 061°46'0 0.0
2018-May-09 06:59N 17°01' W 061°46'0 0.0
2018-May-09 06:29N 17°01' W 061°46'0 0.0
2018-May-09 05:59N 17°01' W 061°46'0 0.0
2018-May-09 05:29N 17°01' W 061°46'0 0.0
2018-May-09 04:59N 17°01' W 061°46'0 0.0
2018-May-09 04:29N 17°01' W 061°46'0 0.0
2018-May-09 03:59N 17°01' W 061°46'0 0.0
2018-May-09 03:29N 17°01' W 061°46'0 0.0
2018-May-09 02:59N 17°01' W 061°46'0 0.0
2018-May-09 02:29N 17°01' W 061°46'0 0.0
2018-May-09 01:59N 17°01' W 061°46'0 0.0
2018-May-09 01:29N 17°01' W 061°46'0 0.0
2018-May-09 00:59N 17°01' W 061°46'0 0.0
2018-May-09 00:29N 17°01' W 061°46'0 0.0
2018-May-08 23:59N 17°01' W 061°46'0 0.0
2018-May-08 23:29N 17°01' W 061°46'0 0.0
2018-May-08 22:59N 17°01' W 061°46'0 0.0
2018-May-08 22:29N 17°01' W 061°46'0 0.0
2018-May-08 21:59N 17°01' W 061°46'0 0.0
2018-May-08 21:29N 17°01' W 061°46'0 0.0
2018-May-08 20:59N 17°01' W 061°46'0 0.0
2018-May-08 20:29N 17°01' W 061°46'0 0.0
2018-May-08 19:59N 17°01' W 061°46'0 0.0
2018-May-08 19:29N 17°01' W 061°46'0 0.0
2018-May-08 18:59N 17°01' W 061°46'0 0.0
2018-May-08 18:29N 17°01' W 061°46'0 0.0
2018-May-08 17:59N 17°01' W 061°46'0 0.0
2018-May-08 17:29N 17°01' W 061°46'0 0.0
2018-May-08 16:59N 17°01' W 061°46'0 0.0
2018-May-08 16:29N 17°01' W 061°46'0 0.0
2018-May-08 15:59N 17°01' W 061°46'0 0.0
2018-May-08 15:29N 17°01' W 061°46'0 0.0
2018-May-08 14:59N 17°01' W 061°46'0 0.0
2018-May-08 14:29N 17°01' W 061°46'0 0.0
2018-May-08 13:59N 17°01' W 061°46'0 0.0
2018-May-08 13:29N 17°01' W 061°46'0 0.0
2018-May-08 12:59N 17°01' W 061°46'0 0.0
2018-May-08 12:29N 17°01' W 061°46'0 0.0
2018-May-08 11:59N 17°01' W 061°46'0 0.0
2018-May-08 11:29N 17°01' W 061°46'0 0.0
2018-May-08 10:59N 17°01' W 061°46'0 0.0
2018-May-08 10:29N 17°01' W 061°46'0 0.0
2018-May-08 09:59N 17°01' W 061°46'0 0.0
2018-May-08 09:29N 17°01' W 061°46'0 0.0
2018-May-08 08:59N 17°01' W 061°46'0 0.0
2018-May-08 08:29N 17°01' W 061°46'0 0.0
2018-May-08 07:59N 17°01' W 061°46'0 0.0
2018-May-08 07:29N 17°01' W 061°46'0 0.0
2018-May-08 06:59N 17°01' W 061°46'0 0.0
2018-May-08 06:29N 17°01' W 061°46'0 0.0
2018-May-08 05:59N 17°01' W 061°46'0 0.0
2018-May-08 05:29N 17°01' W 061°46'0 0.0
2018-May-08 04:59N 17°01' W 061°46'0 0.0
2018-May-08 04:29N 17°01' W 061°46'0 0.0
2018-May-08 03:59N 17°01' W 061°46'0 0.0
2018-May-08 03:29N 17°01' W 061°46'0 0.0
2018-May-08 02:59N 17°01' W 061°46'0 0.0
2018-May-08 02:29N 17°01' W 061°46'0 0.0
2018-May-08 01:59N 17°01' W 061°46'0 0.0
2018-May-08 01:29N 17°01' W 061°46'0 0.0
2018-May-08 00:59N 17°01' W 061°46'0 0.0
2018-May-08 00:29N 17°01' W 061°46'0 0.0
2018-May-07 23:59N 17°01' W 061°46'0 0.0
2018-May-07 23:29N 17°01' W 061°46'0 0.0
2018-May-07 22:59N 17°01' W 061°46'0 0.0
2018-May-07 22:29N 17°01' W 061°46'0 0.0
2018-May-07 21:59N 17°01' W 061°46'0 0.0
2018-May-07 21:29N 17°01' W 061°46'0 0.0
2018-May-07 20:59N 17°01' W 061°46'0 0.0
2018-May-07 20:29N 17°01' W 061°46'0 0.0
2018-May-07 19:59N 17°01' W 061°46'0 0.0
2018-May-07 19:29N 17°01' W 061°46'0 0.0
2018-May-07 18:59N 17°01' W 061°46'0 0.0
2018-May-07 18:29N 17°01' W 061°46'0 0.0
2018-May-07 17:59N 17°01' W 061°46'0 0.0
2018-May-07 17:29N 17°01' W 061°46'0 0.0
2018-May-07 16:59N 17°01' W 061°46'0 0.0
2018-May-07 16:29N 17°01' W 061°46'0 0.0
2018-May-07 15:59N 17°01' W 061°46'0 0.0
2018-May-07 15:29N 17°01' W 061°46'0 0.0
2018-May-07 14:59N 17°01' W 061°46'0 0.0
2018-May-07 14:29N 17°01' W 061°46'0 0.0
2018-May-07 13:59N 17°01' W 061°46'0 0.0
2018-May-07 13:29N 17°01' W 061°46'0 0.0
2018-May-07 12:59N 17°01' W 061°46'0 0.0
2018-May-07 12:29N 17°01' W 061°46'0 0.0
2018-May-07 11:56N 17°01' W 061°46'0 0.0
2018-May-07 11:29N 17°01' W 061°46'0 0.0
2018-May-07 10:59N 17°01' W 061°46'0 0.0
2018-May-07 10:29N 17°01' W 061°46'0 0.0
2018-May-07 09:59N 17°01' W 061°46'0 0.0
2018-May-07 09:29N 17°01' W 061°46'0 0.0
2018-May-07 08:59N 17°01' W 061°46'0 0.0
2018-May-07 08:29N 17°01' W 061°46'0 0.0
2018-May-07 07:59N 17°01' W 061°46'0 0.0
2018-May-07 07:29N 17°01' W 061°46'0 0.0
2018-May-07 06:59N 17°01' W 061°46'0 0.0
2018-May-07 06:29N 17°01' W 061°46'0 0.0
2018-May-07 05:59N 17°01' W 061°46'0 0.0
2018-May-07 05:29N 17°01' W 061°46'0 0.0
2018-May-07 04:59N 17°01' W 061°46'0 0.0
2018-May-07 04:29N 17°01' W 061°46'0 0.0
2018-May-07 03:59N 17°01' W 061°46'0 0.0
2018-May-07 03:29N 17°01' W 061°46'0 0.0
2018-May-07 02:59N 17°01' W 061°46'0 0.0
2018-May-07 02:29N 17°01' W 061°46'0 0.0
2018-May-07 01:59N 17°01' W 061°46'0 0.0
2018-May-07 01:29N 17°01' W 061°46'0 0.0
2018-May-07 00:59N 17°01' W 061°46'0 0.0
2018-May-07 00:29N 17°01' W 061°46'0 0.0
2018-May-06 23:59N 17°01' W 061°46'0 0.0
2018-May-06 23:29N 17°01' W 061°46'0 0.0
2018-May-06 22:59N 17°01' W 061°46'0 0.0
2018-May-06 22:29N 17°01' W 061°46'0 0.0
2018-May-06 21:59N 17°01' W 061°46'0 0.0
2018-May-06 21:29N 17°01' W 061°46'0 0.0
2018-May-06 20:59N 17°01' W 061°46'0 0.0
2018-May-06 20:29N 17°01' W 061°46'0 0.0
2018-May-06 19:59N 17°01' W 061°46'0 0.0
2018-May-06 19:29N 17°01' W 061°46'0 0.0
2018-May-06 18:59N 17°01' W 061°46'0 0.0
2018-May-06 18:29N 17°01' W 061°46'0 0.0
2018-May-06 17:59N 17°01' W 061°46'0 0.0
2018-May-06 17:29N 17°01' W 061°46'0 0.0
2018-May-06 16:59N 17°01' W 061°46'0 0.0
2018-May-06 16:29N 17°01' W 061°46'0 0.0
2018-May-06 15:59N 17°01' W 061°46'0 0.0
2018-May-06 15:29N 17°01' W 061°46'0 0.0
2018-May-06 14:59N 17°01' W 061°46'0 0.0
2018-May-06 14:29N 17°01' W 061°46'0 0.0
2018-May-06 13:59N 17°01' W 061°46'0 0.0
2018-May-06 13:29N 17°01' W 061°46'0 0.0
2018-May-06 12:59N 17°01' W 061°46'0 0.0
2018-May-06 12:29N 17°01' W 061°46'0 0.0
2018-May-06 11:59N 17°01' W 061°46'0 0.0
2018-May-06 11:29N 17°01' W 061°46'0 0.0
2018-May-06 10:59N 17°01' W 061°46'0 0.0
2018-May-06 10:29N 17°01' W 061°46'0 0.0
2018-May-06 09:59N 17°01' W 061°46'0 0.0
2018-May-06 09:29N 17°01' W 061°46'0 0.0
2018-May-06 08:59N 17°01' W 061°46'0 0.0
2018-May-06 08:29N 17°01' W 061°46'0 0.0
2018-May-06 07:59N 17°01' W 061°46'0 0.0
2018-May-06 07:29N 17°01' W 061°46'0 0.0
2018-May-06 06:59N 17°01' W 061°46'0 0.0
2018-May-06 06:29N 17°01' W 061°46'0 0.0
2018-May-06 05:59N 17°01' W 061°46'0 0.0
2018-May-06 05:29N 17°01' W 061°46'0 0.0
2018-May-06 04:59N 17°01' W 061°46'0 0.0
2018-May-06 04:29N 17°01' W 061°46'0 0.0
2018-May-06 03:59N 17°01' W 061°46'0 0.0
2018-May-06 03:29N 17°01' W 061°46'0 0.0
2018-May-06 02:59N 17°01' W 061°46'0 0.0
2018-May-06 02:29N 17°01' W 061°46'0 0.0
2018-May-06 01:59N 17°01' W 061°46'0 0.0
2018-May-06 01:29N 17°01' W 061°46'0 0.0
2018-May-06 00:59N 17°01' W 061°46'0 0.0
2018-May-06 00:29N 17°01' W 061°46'0 0.0
2018-May-05 23:59N 17°01' W 061°46'0 0.0
2018-May-05 23:29N 17°01' W 061°46'0 0.0
2018-May-05 22:59N 17°01' W 061°46'0 0.0
2018-May-05 22:29N 17°01' W 061°46'0 0.0
2018-May-05 21:59N 17°01' W 061°46'0 0.0
2018-May-05 21:29N 17°01' W 061°46'0 0.0
2018-May-05 20:59N 17°01' W 061°46'0 0.0
2018-May-05 20:29N 17°01' W 061°46'0 0.0
2018-May-05 19:59N 17°01' W 061°46'0 0.0
2018-May-05 19:29N 17°01' W 061°46'0 0.0
2018-May-05 18:59N 17°01' W 061°46'0 0.0
2018-May-05 18:29N 17°01' W 061°46'0 0.0
2018-May-05 17:59N 17°01' W 061°46'0 0.0
2018-May-05 17:29N 17°01' W 061°46'0 0.0
2018-May-05 16:59N 17°01' W 061°46'0 0.0
2018-May-05 16:29N 17°01' W 061°46'0 0.0
2018-May-05 15:59N 17°01' W 061°46'0 0.0
2018-May-05 15:29N 17°01' W 061°46'0 0.0
2018-May-05 14:59N 17°01' W 061°46'0 0.0
2018-May-05 14:29N 17°01' W 061°46'0 0.0
2018-May-05 13:59N 17°01' W 061°46'0 0.0
2018-May-05 13:29N 17°01' W 061°46'0 0.0
2018-May-05 12:59N 17°01' W 061°46'0 0.0
2018-May-05 12:29N 17°01' W 061°46'0 0.0
2018-May-05 11:59N 17°01' W 061°46'0 0.0
2018-May-05 11:29N 17°01' W 061°46'0 0.0
2018-May-05 10:59N 17°01' W 061°46'0 0.0
2018-May-05 10:29N 17°01' W 061°46'0 0.0
2018-May-05 09:59N 17°01' W 061°46'0 0.0
2018-May-05 09:29N 17°01' W 061°46'0 0.0
2018-May-05 08:59N 17°01' W 061°46'0 0.0
2018-May-05 08:29N 17°01' W 061°46'0 0.0
2018-May-05 07:59N 17°01' W 061°46'0 0.0
2018-May-05 07:29N 17°01' W 061°46'0 0.0
2018-May-05 06:59N 17°01' W 061°46'0 0.0
2018-May-05 06:29N 17°01' W 061°46'0 0.0
2018-May-05 05:59N 17°01' W 061°46'0 0.0
2018-May-05 05:29N 17°01' W 061°46'0 0.0
2018-May-05 04:59N 17°01' W 061°46'0 0.0
2018-May-05 04:29N 17°01' W 061°46'0 0.0
2018-May-05 03:59N 17°01' W 061°46'0 0.0
2018-May-05 03:29N 17°01' W 061°46'0 0.0
2018-May-05 02:59N 17°01' W 061°46'0 0.0
2018-May-05 02:29N 17°01' W 061°46'0 0.0
2018-May-05 01:59N 17°01' W 061°46'0 0.0
2018-May-05 01:29N 17°01' W 061°46'0 0.0
2018-May-05 00:59N 17°01' W 061°46'0 0.0
2018-May-05 00:29N 17°01' W 061°46'0 0.0
2018-May-04 23:59N 17°01' W 061°46'0 0.0
2018-May-04 23:29N 17°01' W 061°46'0 0.0
2018-May-04 22:59N 17°01' W 061°46'0 0.0
2018-May-04 22:29N 17°01' W 061°46'0 0.0
2018-May-04 21:59N 17°01' W 061°46'0 0.0
2018-May-04 21:29N 17°01' W 061°46'0 0.0
2018-May-04 20:59N 17°01' W 061°46'0 0.0
2018-May-04 20:29N 17°01' W 061°46'0 0.0
2018-May-04 19:59N 17°01' W 061°46'0 0.0
2018-May-04 19:29N 17°01' W 061°46'0 0.0
2018-May-04 18:59N 17°01' W 061°46'0 0.0
2018-May-04 18:29N 17°01' W 061°46'0 0.0
2018-May-04 17:59N 17°01' W 061°46'0 0.0
2018-May-04 17:29N 17°01' W 061°46'0 0.0
2018-May-04 16:59N 17°01' W 061°46'0 0.0
2018-May-04 16:29N 17°01' W 061°46'0 0.0
2018-May-04 15:59N 17°01' W 061°46'0 0.0
2018-May-04 15:29N 17°01' W 061°46'0 0.0
2018-May-04 14:59N 17°01' W 061°46'0 0.0
2018-May-04 14:29N 17°01' W 061°46'0 0.0
2018-May-04 13:59N 17°01' W 061°46'0 0.0
2018-May-04 13:23N 17°01' W 061°46'0 0.0
2018-May-04 12:59N 17°01' W 061°46'0 0.0
2018-May-04 12:29N 17°01' W 061°46'0 0.0
2018-May-04 11:59N 17°01' W 061°46'0 0.0
2018-May-04 11:29N 17°01' W 061°46'0 0.0
2018-May-04 10:59N 17°01' W 061°46'0 0.0
2018-May-04 10:29N 17°01' W 061°46'0 0.0
2018-May-04 09:59N 17°01' W 061°46'0 0.0
2018-May-04 09:29N 17°01' W 061°46'0 0.0
2018-May-04 08:59N 17°01' W 061°46'0 0.0
2018-May-04 08:29N 17°01' W 061°46'0 0.0
2018-May-04 07:59N 17°01' W 061°46'0 0.0
2018-May-04 07:29N 17°01' W 061°46'0 0.0
2018-May-04 06:59N 17°01' W 061°46'0 0.0
2018-May-04 06:29N 17°01' W 061°46'0 0.0
2018-May-04 05:59N 17°01' W 061°46'0 0.0
2018-May-04 05:29N 17°01' W 061°46'0 0.0
2018-May-04 04:59N 17°01' W 061°46'0 0.0
2018-May-04 04:29N 17°01' W 061°46'0 0.0
2018-May-04 03:59N 17°01' W 061°46'0 0.0
2018-May-04 03:29N 17°01' W 061°46'0 0.0
2018-May-04 02:59N 17°01' W 061°46'0 0.0
2018-May-04 02:29N 17°01' W 061°46'0 0.0
2018-May-04 01:59N 17°01' W 061°46'0 0.0
2018-May-04 01:29N 17°01' W 061°46'0 0.0
2018-May-04 00:59N 17°01' W 061°46'0 0.0
2018-May-04 00:29N 17°01' W 061°46'0 0.0
2018-May-03 23:59N 17°01' W 061°46'0 0.0
2018-May-03 23:29N 17°01' W 061°46'0 0.0
2018-May-03 22:59N 17°01' W 061°46'0 0.0
2018-May-03 22:29N 17°01' W 061°46'0 0.0
2018-May-03 21:59N 17°01' W 061°46'0 0.0
2018-May-03 21:29N 17°01' W 061°46'0 0.0
2018-May-03 20:59N 17°01' W 061°46'0 0.0
2018-May-03 20:29N 17°01' W 061°46'0 0.0
2018-May-03 19:59N 17°01' W 061°46'0 0.0
2018-May-03 19:29N 17°01' W 061°46'0 0.0
2018-May-03 18:59N 17°01' W 061°46'0 0.0
2018-May-03 18:29N 17°01' W 061°46'0 0.0
2018-May-03 17:59N 17°01' W 061°46'0 0.0
2018-May-03 17:29N 17°01' W 061°46'0 0.0
2018-May-03 16:59N 17°01' W 061°46'0 0.0
2018-May-03 16:29N 17°01' W 061°46'0 0.0
2018-May-03 15:56N 17°01' W 061°46'0 0.0
2018-May-03 15:29N 17°01' W 061°46'0 0.0
2018-May-03 14:59N 17°01' W 061°46'0 0.0
2018-May-03 14:29N 17°01' W 061°46'0 0.0
2018-May-03 13:59N 17°01' W 061°46'0 0.0
2018-May-03 13:29N 17°01' W 061°46'0 0.0
2018-May-03 12:59N 17°01' W 061°46'0 0.0
2018-May-03 12:29N 17°01' W 061°46'0 0.0
2018-May-03 11:59N 17°01' W 061°46'0 0.0
2018-May-03 11:29N 17°01' W 061°46'0 0.0
2018-May-03 10:59N 17°01' W 061°46'0 0.0
2018-May-03 10:29N 17°01' W 061°46'0 0.0
2018-May-03 09:59N 17°01' W 061°46'0 0.0
2018-May-03 09:29N 17°01' W 061°46'0 0.0
2018-May-03 08:59N 17°01' W 061°46'0 0.0
2018-May-03 08:29N 17°01' W 061°46'0 0.0
2018-May-03 07:59N 17°01' W 061°46'0 0.0
2018-May-03 07:29N 17°01' W 061°46'0 0.0
2018-May-03 06:59N 17°01' W 061°46'0 0.0
2018-May-03 06:29N 17°01' W 061°46'0 0.0
2018-May-03 05:59N 17°01' W 061°46'0 0.0
2018-May-03 05:29N 17°01' W 061°46'0 0.0
2018-May-03 04:59N 17°01' W 061°46'0 0.0
2018-May-03 04:29N 17°01' W 061°46'0 0.0
2018-May-03 03:59N 17°01' W 061°46'  
Track history (hours):
 
Tides and Currents Weather Stations Pressure Air Temp Water Temp Dewpoint Dewpoint Depression Visibility Wind Speed Wind Dir Waves Ship Positions

Reflections

Last reported at 2018-May-13 03:38 UTC. Time now 2018-Jun-20 02:01 UTC.
Position N 17°51' W 063°30'.
Warning: this ship's position is 37 days out of date.

Length 33 m; draft 2.3 m.

Type: Pleasure craft. MMSI: 339463000.

Date/timePositionNaut miles runAvg speedWind from/ knotsBaromVisibWave heightAir tempDewpointWater temp
2018-May-13 03:38N 17°51' W 063°30'310.1
2018-May-13 03:23N 17°50' W 063°28'4 9.6
2018-May-13 02:59N 17°48' W 063°24'6 9.7
2018-May-13 02:25N 17°46' W 063°19'4 9.6
2018-May-13 01:59N 17°44' W 063°15'5 9.6
2018-May-13 01:28N 17°43' W 063°10'5 9.6
2018-May-13 00:56N 17°41' W 063°05'510.1
2018-May-13 00:29N 17°39' W 063°01'45 9.7
2018-May-12 19:51N 17°15' W 062°21'310.2
2018-May-12 19:30N 17°13' W 062°18'5 9.9
2018-May-12 19:00N 17°11' W 062°13'510.0
2018-May-12 18:30N 17°08' W 062°09'510.2
2018-May-12 18:00N 17°06' W 062°04'510.2
2018-May-12 17:30N 17°03' W 061°59'510.4
2018-May-12 17:00N 17°01' W 061°55'510.0
2018-May-12 16:30N 16°60' W 061°50'3 6.7
2018-May-12 16:00N 17°01' W 061°46'0 0.0
2018-May-12 15:29N 17°01' W 061°46'0 0.0
2018-May-12 14:59N 17°01' W 061°46'0 0.0
2018-May-12 14:29N 17°01' W 061°46'0 0.0
2018-May-12 13:59N 17°01' W 061°46'0 0.0
2018-May-12 13:29N 17°01' W 061°46'0 0.0
2018-May-12 12:59N 17°01' W 061°46'0 0.0
2018-May-12 12:29N 17°01' W 061°46'0 0.0
2018-May-12 11:59N 17°01' W 061°46'0 0.0
2018-May-12 11:29N 17°01' W 061°46'0 0.0
2018-May-12 10:59N 17°01' W 061°46'0 0.0
2018-May-12 10:29N 17°01' W 061°46'0 0.0
2018-May-12 09:59N 17°01' W 061°46'0 0.0
2018-May-12 09:29N 17°01' W 061°46'0 0.0
2018-May-12 08:59N 17°01' W 061°46'0 0.0
2018-May-12 08:29N 17°01' W 061°46'0 0.0
2018-May-12 07:59N 17°01' W 061°46'0 0.0
2018-May-12 07:29N 17°01' W 061°46'0 0.0
2018-May-12 06:59N 17°01' W 061°46'0 0.0
2018-May-12 06:29N 17°01' W 061°46'0 0.0
2018-May-12 05:59N 17°01' W 061°46'0 0.0
2018-May-12 05:29N 17°01' W 061°46'0 0.0
2018-May-12 04:59N 17°01' W 061°46'0 0.0
2018-May-12 04:29N 17°01' W 061°46'0 0.0
2018-May-12 03:59N 17°01' W 061°46'0 0.0
2018-May-12 03:29N 17°01' W 061°46'0 0.0
2018-May-12 02:59N 17°01' W 061°46'0 0.0
2018-May-12 02:29N 17°01' W 061°46'0 0.0
2018-May-12 01:59N 17°01' W 061°46'0 0.0
2018-May-12 01:29N 17°01' W 061°46'0 0.0
2018-May-12 00:59N 17°01' W 061°46'0 0.0
2018-May-12 00:29N 17°01' W 061°46'0 0.0
2018-May-11 23:59N 17°01' W 061°46'0 0.0
2018-May-11 23:29N 17°01' W 061°46'0 0.0
2018-May-11 22:59N 17°01' W 061°46'0 0.0
2018-May-11 22:29N 17°01' W 061°46'0 0.0
2018-May-11 21:59N 17°01' W 061°46'0 0.0
2018-May-11 21:29N 17°01' W 061°46'0 0.0
2018-May-11 20:59N 17°01' W 061°46'0 0.0
2018-May-11 20:29N 17°01' W 061°46'0 0.0
2018-May-11 19:59N 17°01' W 061°46'0 0.0
2018-May-11 19:29N 17°01' W 061°46'0 0.0
2018-May-11 18:59N 17°01' W 061°46'0 0.0
2018-May-11 18:29N 17°01' W 061°46'0 0.0
2018-May-11 17:59N 17°01' W 061°46'0 0.0
2018-May-11 17:29N 17°01' W 061°46'0 0.0
2018-May-11 16:59N 17°01' W 061°46'0 0.0
2018-May-11 16:29N 17°01' W 061°46'0 0.0
2018-May-11 15:59N 17°01' W 061°46'0 0.0
2018-May-11 15:29N 17°01' W 061°46'0 0.0
2018-May-11 14:59N 17°01' W 061°46'0 0.0
2018-May-11 14:29N 17°01' W 061°46'0 0.0
2018-May-11 13:59N 17°01' W 061°46'0 0.0
2018-May-11 13:29N 17°01' W 061°46'0 0.0
2018-May-11 12:59N 17°01' W 061°46'0 0.0
2018-May-11 12:29N 17°01' W 061°46'0 0.0
2018-May-11 11:59N 17°01' W 061°46'0 0.0
2018-May-11 11:29N 17°01' W 061°46'0 0.0
2018-May-11 10:59N 17°01' W 061°46'0 0.0
2018-May-11 10:29N 17°01' W 061°46'0 0.0
2018-May-11 09:59N 17°01' W 061°46'0 0.0
2018-May-11 09:29N 17°01' W 061°46'0 0.0
2018-May-11 08:59N 17°01' W 061°46'0 0.0
2018-May-11 08:29N 17°01' W 061°46'0 0.0
2018-May-11 07:59N 17°01' W 061°46'0 0.0
2018-May-11 07:29N 17°01' W 061°46'0 0.0
2018-May-11 06:59N 17°01' W 061°46'0 0.0
2018-May-11 06:29N 17°01' W 061°46'0 0.0
2018-May-11 05:53N 17°01' W 061°46'0 0.0
2018-May-11 05:29N 17°01' W 061°46'0 0.0
2018-May-11 04:59N 17°01' W 061°46'0 0.0
2018-May-11 04:29N 17°01' W 061°46'0 0.0
2018-May-11 03:59N 17°01' W 061°46'0 0.0
2018-May-11 03:29N 17°01' W 061°46'0 0.0
2018-May-11 02:59N 17°01' W 061°46'0 0.0
2018-May-11 02:29N 17°01' W 061°46'0 0.0
2018-May-11 01:59N 17°01' W 061°46'0 0.0
2018-May-11 01:29N 17°01' W 061°46'0 0.0
2018-May-11 00:59N 17°01' W 061°46'0 0.0
2018-May-11 00:29N 17°01' W 061°46'0 0.0
2018-May-10 23:59N 17°01' W 061°46'0 0.0
2018-May-10 23:29N 17°01' W 061°46'0 0.0
2018-May-10 22:59N 17°01' W 061°46'0 0.0
2018-May-10 22:29N 17°01' W 061°46'0 0.0
2018-May-10 21:59N 17°01' W 061°46'0 0.0
2018-May-10 21:29N 17°01' W 061°46'0 0.0
2018-May-10 20:59N 17°01' W 061°46'0 0.0
2018-May-10 20:29N 17°01' W 061°46'0 0.0
2018-May-10 19:59N 17°01' W 061°46'0 0.0
2018-May-10 19:29N 17°01' W 061°46'0 0.0
2018-May-10 18:59N 17°01' W 061°46'0 0.0
2018-May-10 18:29N 17°01' W 061°46'0 0.0
2018-May-10 17:59N 17°01' W 061°46'0 0.0
2018-May-10 17:29N 17°01' W 061°46'0 0.0
2018-May-10 16:59N 17°01' W 061°46'0 0.0
2018-May-10 16:23N 17°01' W 061°46'0 0.0
2018-May-10 15:59N 17°01' W 061°46'0 0.0
2018-May-10 15:29N 17°01' W 061°46'0 0.0
2018-May-10 14:59N 17°01' W 061°46'0 0.0
2018-May-10 14:29N 17°01' W 061°46'0 0.0
2018-May-10 13:59N 17°01' W 061°46'0 0.0
2018-May-10 13:29N 17°01' W 061°46'0 0.0
2018-May-10 12:59N 17°01' W 061°46'0 0.0
2018-May-10 12:29N 17°01' W 061°46'0 0.0
2018-May-10 11:59N 17°01' W 061°46'0 0.0
2018-May-10 11:29N 17°01' W 061°46'0 0.0
2018-May-10 10:59N 17°01' W 061°46'0 0.0
2018-May-10 10:29N 17°01' W 061°46'0 0.0
2018-May-10 09:59N 17°01' W 061°46'0 0.0
2018-May-10 09:29N 17°01' W 061°46'0 0.0
2018-May-10 08:59N 17°01' W 061°46'0 0.0
2018-May-10 08:29N 17°01' W 061°46'0 0.0
2018-May-10 07:59N 17°01' W 061°46'0 0.0
2018-May-10 07:29N 17°01' W 061°46'0 0.0
2018-May-10 06:59N 17°01' W 061°46'0 0.0
2018-May-10 06:29N 17°01' W 061°46'0 0.0
2018-May-10 05:59N 17°01' W 061°46'0 0.0
2018-May-10 05:29N 17°01' W 061°46'0 0.0
2018-May-10 04:59N 17°01' W 061°46'0 0.0
2018-May-10 04:29N 17°01' W 061°46'0 0.0
2018-May-10 03:59N 17°01' W 061°46'0 0.0
2018-May-10 03:29N 17°01' W 061°46'0 0.0
2018-May-10 02:59N 17°01' W 061°46'0 0.0
2018-May-10 02:29N 17°01' W 061°46'0 0.0
2018-May-10 01:59N 17°01' W 061°46'0 0.0
2018-May-10 01:29N 17°01' W 061°46'0 0.0
2018-May-10 00:59N 17°01' W 061°46'0 0.0
2018-May-10 00:29N 17°01' W 061°46'0 0.0
2018-May-09 23:59N 17°01' W 061°46'0 0.0
2018-May-09 23:29N 17°01' W 061°46'0 0.0
2018-May-09 22:59N 17°01' W 061°46'0 0.0
2018-May-09 22:29N 17°01' W 061°46'0 0.0
2018-May-09 21:59N 17°01' W 061°46'0 0.0
2018-May-09 21:29N 17°01' W 061°46'0 0.0
2018-May-09 20:59N 17°01' W 061°46'0 0.0
2018-May-09 20:29N 17°01' W 061°46'0 0.0
2018-May-09 19:59N 17°01' W 061°46'0 0.0
2018-May-09 19:29N 17°01' W 061°46'0 0.0
2018-May-09 18:59N 17°01' W 061°46'0 0.0
2018-May-09 18:29N 17°01' W 061°46'0 0.0
2018-May-09 17:59N 17°01' W 061°46'0 0.0
2018-May-09 17:29N 17°01' W 061°46'0 0.0
2018-May-09 16:59N 17°01' W 061°46'0 0.0
2018-May-09 16:29N 17°01' W 061°46'0 0.0
2018-May-09 15:59N 17°01' W 061°46'0 0.0
2018-May-09 15:29N 17°01' W 061°46'0 0.0
2018-May-09 14:59N 17°01' W 061°46'0 0.0
2018-May-09 14:29N 17°01' W 061°46'0 0.0
2018-May-09 13:59N 17°01' W 061°46'0 0.0
2018-May-09 13:29N 17°01' W 061°46'0 0.0
2018-May-09 12:59N 17°01' W 061°46'0 0.0
2018-May-09 12:29N 17°01' W 061°46'0 0.0
2018-May-09 11:59N 17°01' W 061°46'0 0.0
2018-May-09 11:29N 17°01' W 061°46'0 0.0
2018-May-09 10:59N 17°01' W 061°46'0 0.0
2018-May-09 10:29N 17°01' W 061°46'0 0.0
2018-May-09 09:59N 17°01' W 061°46'0 0.0
2018-May-09 09:29N 17°01' W 061°46'0 0.0
2018-May-09 08:59N 17°01' W 061°46'0 0.0
2018-May-09 08:29N 17°01' W 061°46'0 0.0
2018-May-09 07:59N 17°01' W 061°46'0 0.0
2018-May-09 07:29N 17°01' W 061°46'0 0.0
2018-May-09 06:59N 17°01' W 061°46'0 0.0
2018-May-09 06:29N 17°01' W 061°46'0 0.0
2018-May-09 05:59N 17°01' W 061°46'0 0.0
2018-May-09 05:29N 17°01' W 061°46'0 0.0
2018-May-09 04:59N 17°01' W 061°46'0 0.0
2018-May-09 04:29N 17°01' W 061°46'0 0.0
2018-May-09 03:59N 17°01' W 061°46'0 0.0
2018-May-09 03:29N 17°01' W 061°46'0 0.0
2018-May-09 02:59N 17°01' W 061°46'0 0.0
2018-May-09 02:29N 17°01' W 061°46'0 0.0
2018-May-09 01:59N 17°01' W 061°46'0 0.0
2018-May-09 01:29N 17°01' W 061°46'0 0.0
2018-May-09 00:59N 17°01' W 061°46'0 0.0
2018-May-09 00:29N 17°01' W 061°46'0 0.0
2018-May-08 23:59N 17°01' W 061°46'0 0.0
2018-May-08 23:29N 17°01' W 061°46'0 0.0
2018-May-08 22:59N 17°01' W 061°46'0 0.0
2018-May-08 22:29N 17°01' W 061°46'0 0.0
2018-May-08 21:59N 17°01' W 061°46'0 0.0
2018-May-08 21:29N 17°01' W 061°46'0 0.0
2018-May-08 20:59N 17°01' W 061°46'0 0.0
2018-May-08 20:29N 17°01' W 061°46'0 0.0
2018-May-08 19:59N 17°01' W 061°46'0 0.0
2018-May-08 19:29N 17°01' W 061°46'0 0.0
2018-May-08 18:59N 17°01' W 061°46'0 0.0
2018-May-08 18:29N 17°01' W 061°46'0 0.0
2018-May-08 17:59N 17°01' W 061°46'0 0.0
2018-May-08 17:29N 17°01' W 061°46'0 0.0
2018-May-08 16:59N 17°01' W 061°46'0 0.0
2018-May-08 16:29N 17°01' W 061°46'0 0.0
2018-May-08 15:59N 17°01' W 061°46'0 0.0
2018-May-08 15:29N 17°01' W 061°46'0 0.0
2018-May-08 14:59N 17°01' W 061°46'0 0.0
2018-May-08 14:29N 17°01' W 061°46'0 0.0
2018-May-08 13:59N 17°01' W 061°46'0 0.0
2018-May-08 13:29N 17°01' W 061°46'0 0.0
2018-May-08 12:59N 17°01' W 061°46'0 0.0
2018-May-08 12:29N 17°01' W 061°46'0 0.0
2018-May-08 11:59N 17°01' W 061°46'0 0.0
2018-May-08 11:29N 17°01' W 061°46'0 0.0
2018-May-08 10:59N 17°01' W 061°46'0 0.0
2018-May-08 10:29N 17°01' W 061°46'0 0.0
2018-May-08 09:59N 17°01' W 061°46'0 0.0
2018-May-08 09:29N 17°01' W 061°46'0 0.0
2018-May-08 08:59N 17°01' W 061°46'0 0.0
2018-May-08 08:29N 17°01' W 061°46'0 0.0
2018-May-08 07:59N 17°01' W 061°46'0 0.0
2018-May-08 07:29N 17°01' W 061°46'0 0.0
2018-May-08 06:59N 17°01' W 061°46'0 0.0
2018-May-08 06:29N 17°01' W 061°46'0 0.0
2018-May-08 05:59N 17°01' W 061°46'0 0.0
2018-May-08 05:29N 17°01' W 061°46'0 0.0
2018-May-08 04:59N 17°01' W 061°46'0 0.0
2018-May-08 04:29N 17°01' W 061°46'0 0.0
2018-May-08 03:59N 17°01' W 061°46'0 0.0
2018-May-08 03:29N 17°01' W 061°46'0 0.0
2018-May-08 02:59N 17°01' W 061°46'0 0.0
2018-May-08 02:29N 17°01' W 061°46'0 0.0
2018-May-08 01:59N 17°01' W 061°46'0 0.0
2018-May-08 01:29N 17°01' W 061°46'0 0.0
2018-May-08 00:59N 17°01' W 061°46'0 0.0
2018-May-08 00:29N 17°01' W 061°46'0 0.0
2018-May-07 23:59N 17°01' W 061°46'0 0.0
2018-May-07 23:29N 17°01' W 061°46'0 0.0
2018-May-07 22:59N 17°01' W 061°46'0 0.0
2018-May-07 22:29N 17°01' W 061°46'0 0.0
2018-May-07 21:59N 17°01' W 061°46'0 0.0
2018-May-07 21:29N 17°01' W 061°46'0 0.0
2018-May-07 20:59N 17°01' W 061°46'0 0.0
2018-May-07 20:29N 17°01' W 061°46'0 0.0
2018-May-07 19:59N 17°01' W 061°46'0 0.0
2018-May-07 19:29N 17°01' W 061°46'0 0.0
2018-May-07 18:59N 17°01' W 061°46'0 0.0
2018-May-07 18:29N 17°01' W 061°46'0 0.0
2018-May-07 17:59N 17°01' W 061°46'0 0.0
2018-May-07 17:29N 17°01' W 061°46'0 0.0
2018-May-07 16:59N 17°01' W 061°46'0 0.0
2018-May-07 16:29N 17°01' W 061°46'0 0.0
2018-May-07 15:59N 17°01' W 061°46'0 0.0
2018-May-07 15:29N 17°01' W 061°46'0 0.0
2018-May-07 14:59N 17°01' W 061°46'0 0.0
2018-May-07 14:29N 17°01' W 061°46'0 0.0
2018-May-07 13:59N 17°01' W 061°46'0 0.0
2018-May-07 13:29N 17°01' W 061°46'0 0.0
2018-May-07 12:59N 17°01' W 061°46'0 0.0
2018-May-07 12:29N 17°01' W 061°46'0 0.0
2018-May-07 11:56N 17°01' W 061°46'0 0.0
2018-May-07 11:29N 17°01' W 061°46'0 0.0
2018-May-07 10:59N 17°01' W 061°46'0 0.0
2018-May-07 10:29N 17°01' W 061°46'0 0.0
2018-May-07 09:59N 17°01' W 061°46'0 0.0
2018-May-07 09:29N 17°01' W 061°46'0 0.0
2018-May-07 08:59N 17°01' W 061°46'0 0.0
2018-May-07 08:29N 17°01' W 061°46'0 0.0
2018-May-07 07:59N 17°01' W 061°46'0 0.0
2018-May-07 07:29N 17°01' W 061°46'0 0.0
2018-May-07 06:59N 17°01' W 061°46'0 0.0
2018-May-07 06:29N 17°01' W 061°46'0 0.0
2018-May-07 05:59N 17°01' W 061°46'0 0.0
2018-May-07 05:29N 17°01' W 061°46'0 0.0
2018-May-07 04:59N 17°01' W 061°46'0 0.0
2018-May-07 04:29N 17°01' W 061°46'0 0.0
2018-May-07 03:59N 17°01' W 061°46'0 0.0
2018-May-07 03:29N 17°01' W 061°46'0 0.0
2018-May-07 02:59N 17°01' W 061°46'0 0.0
2018-May-07 02:29N 17°01' W 061°46'0 0.0
2018-May-07 01:59N 17°01' W 061°46'0 0.0
2018-May-07 01:29N 17°01' W 061°46'0 0.0
2018-May-07 00:59N 17°01' W 061°46'0 0.0
2018-May-07 00:29N 17°01' W 061°46'0 0.0
2018-May-06 23:59N 17°01' W 061°46'0 0.0
2018-May-06 23:29N 17°01' W 061°46'0 0.0
2018-May-06 22:59N 17°01' W 061°46'0 0.0
2018-May-06 22:29N 17°01' W 061°46'0 0.0
2018-May-06 21:59N 17°01' W 061°46'0 0.0
2018-May-06 21:29N 17°01' W 061°46'0 0.0
2018-May-06 20:59N 17°01' W 061°46'0 0.0
2018-May-06 20:29N 17°01' W 061°46'0 0.0
2018-May-06 19:59N 17°01' W 061°46'0 0.0
2018-May-06 19:29N 17°01' W 061°46'0 0.0
2018-May-06 18:59N 17°01' W 061°46'0 0.0
2018-May-06 18:29N 17°01' W 061°46'0 0.0
2018-May-06 17:59N 17°01' W 061°46'0 0.0
2018-May-06 17:29N 17°01' W 061°46'0 0.0
2018-May-06 16:59N 17°01' W 061°46'0 0.0
2018-May-06 16:29N 17°01' W 061°46'0 0.0
2018-May-06 15:59N 17°01' W 061°46'0 0.0
2018-May-06 15:29N 17°01' W 061°46'0 0.0
2018-May-06 14:59N 17°01' W 061°46'0 0.0
2018-May-06 14:29N 17°01' W 061°46'0 0.0
2018-May-06 13:59N 17°01' W 061°46'0 0.0
2018-May-06 13:29N 17°01' W 061°46'0 0.0
2018-May-06 12:59N 17°01' W 061°46'0 0.0
2018-May-06 12:29N 17°01' W 061°46'0 0.0
2018-May-06 11:59N 17°01' W 061°46'0 0.0
2018-May-06 11:29N 17°01' W 061°46'0 0.0
2018-May-06 10:59N 17°01' W 061°46'0 0.0
2018-May-06 10:29N 17°01' W 061°46'0 0.0
2018-May-06 09:59N 17°01' W 061°46'0 0.0
2018-May-06 09:29N 17°01' W 061°46'0 0.0
2018-May-06 08:59N 17°01' W 061°46'0 0.0
2018-May-06 08:29N 17°01' W 061°46'0 0.0
2018-May-06 07:59N 17°01' W 061°46'0 0.0
2018-May-06 07:29N 17°01' W 061°46'0 0.0
2018-May-06 06:59N 17°01' W 061°46'0 0.0
2018-May-06 06:29N 17°01' W 061°46'0 0.0
2018-May-06 05:59N 17°01' W 061°46'0 0.0
2018-May-06 05:29N 17°01' W 061°46'0 0.0
2018-May-06 04:59N 17°01' W 061°46'0 0.0
2018-May-06 04:29N 17°01' W 061°46'0 0.0
2018-May-06 03:59N 17°01' W 061°46'0 0.0
2018-May-06 03:29N 17°01' W 061°46'0 0.0
2018-May-06 02:59N 17°01' W 061°46'0 0.0
2018-May-06 02:29N 17°01' W 061°46'0 0.0
2018-May-06 01:59N 17°01' W 061°46'0 0.0
2018-May-06 01:29N 17°01' W 061°46'0 0.0
2018-May-06 00:59N 17°01' W 061°46'0 0.0
2018-May-06 00:29N 17°01' W 061°46'0 0.0
2018-May-05 23:59N 17°01' W 061°46'0 0.0
2018-May-05 23:29N 17°01' W 061°46'0 0.0
2018-May-05 22:59N 17°01' W 061°46'0 0.0
2018-May-05 22:29N 17°01' W 061°46'0 0.0
2018-May-05 21:59N 17°01' W 061°46'0 0.0
2018-May-05 21:29N 17°01' W 061°46'0 0.0
2018-May-05 20:59N 17°01' W 061°46'0 0.0
2018-May-05 20:29N 17°01' W 061°46'0 0.0
2018-May-05 19:59N 17°01' W 061°46'0 0.0
2018-May-05 19:29N 17°01' W 061°46'0 0.0
2018-May-05 18:59N 17°01' W 061°46'0 0.0
2018-May-05 18:29N 17°01' W 061°46'0 0.0
2018-May-05 17:59N 17°01' W 061°46'0 0.0
2018-May-05 17:29N 17°01' W 061°46'0 0.0
2018-May-05 16:59N 17°01' W 061°46'0 0.0
2018-May-05 16:29N 17°01' W 061°46'0 0.0
2018-May-05 15:59N 17°01' W 061°46'0 0.0
2018-May-05 15:29N 17°01' W 061°46'0 0.0
2018-May-05 14:59N 17°01' W 061°46'0 0.0
2018-May-05 14:29N 17°01' W 061°46'0 0.0
2018-May-05 13:59N 17°01' W 061°46'0 0.0
2018-May-05 13:29N 17°01' W 061°46'0 0.0
2018-May-05 12:59N 17°01' W 061°46'0 0.0
2018-May-05 12:29N 17°01' W 061°46'0 0.0
2018-May-05 11:59N 17°01' W 061°46'0 0.0
2018-May-05 11:29N 17°01' W 061°46'0 0.0
2018-May-05 10:59N 17°01' W 061°46'0 0.0
2018-May-05 10:29N 17°01' W 061°46'0 0.0
2018-May-05 09:59N 17°01' W 061°46'0 0.0
2018-May-05 09:29N 17°01' W 061°46'0 0.0
2018-May-05 08:59N 17°01' W 061°46'0 0.0
2018-May-05 08:29N 17°01' W 061°46'0 0.0
2018-May-05 07:59N 17°01' W 061°46'0 0.0
2018-May-05 07:29N 17°01' W 061°46'0 0.0
2018-May-05 06:59N 17°01' W 061°46'0 0.0
2018-May-05 06:29N 17°01' W 061°46'0 0.0
2018-May-05 05:59N 17°01' W 061°46'0 0.0
2018-May-05 05:29N 17°01' W 061°46'0 0.0
2018-May-05 04:59N 17°01' W 061°46'0 0.0
2018-May-05 04:29N 17°01' W 061°46'0 0.0
2018-May-05 03:59N 17°01' W 061°46'0 0.0
2018-May-05 03:29N 17°01' W 061°46'0 0.0
2018-May-05 02:59N 17°01' W 061°46'0 0.0
2018-May-05 02:29N 17°01' W 061°46'0 0.0
2018-May-05 01:59N 17°01' W 061°46'0 0.0
2018-May-05 01:29N 17°01' W 061°46'0 0.0
2018-May-05 00:59N 17°01' W 061°46'0 0.0
2018-May-05 00:29N 17°01' W 061°46'0 0.0
2018-May-04 23:59N 17°01' W 061°46'0 0.0
2018-May-04 23:29N 17°01' W 061°46'0 0.0
2018-May-04 22:59N 17°01' W 061°46'0 0.0
2018-May-04 22:29N 17°01' W 061°46'0 0.0
2018-May-04 21:59N 17°01' W 061°46'0 0.0
2018-May-04 21:29N 17°01' W 061°46'0 0.0
2018-May-04 20:59N 17°01' W 061°46'0 0.0
2018-May-04 20:29N 17°01' W 061°46'0 0.0
2018-May-04 19:59N 17°01' W 061°46'0 0.0
2018-May-04 19:29N 17°01' W 061°46'0 0.0
2018-May-04 18:59N 17°01' W 061°46'0 0.0
2018-May-04 18:29N 17°01' W 061°46'0 0.0
2018-May-04 17:59N 17°01' W 061°46'0 0.0
2018-May-04 17:29N 17°01' W 061°46'0 0.0
2018-May-04 16:59N 17°01' W 061°46'0 0.0
2018-May-04 16:29N 17°01' W 061°46'0 0.0
2018-May-04 15:59N 17°01' W 061°46'0 0.0
2018-May-04 15:29N 17°01' W 061°46'0 0.0
2018-May-04 14:59N 17°01' W 061°46'0 0.0
2018-May-04 14:29N 17°01' W 061°46'0 0.0
2018-May-04 13:59N 17°01' W 061°46'0 0.0
2018-May-04 13:23N 17°01' W 061°46'0 0.0
2018-May-04 12:59N 17°01' W 061°46'0 0.0
2018-May-04 12:29N 17°01' W 061°46'0 0.0
2018-May-04 11:59N 17°01' W 061°46'0 0.0
2018-May-04 11:29N 17°01' W 061°46'0 0.0
2018-May-04 10:59N 17°01' W 061°46'0 0.0
2018-May-04 10:29N 17°01' W 061°46'0 0.0
2018-May-04 09:59N 17°01' W 061°46'0 0.0
2018-May-04 09:29N 17°01' W 061°46'0 0.0
2018-May-04 08:59N 17°01' W 061°46'0 0.0
2018-May-04 08:29N 17°01' W 061°46'0 0.0
2018-May-04 07:59N 17°01' W 061°46'0 0.0
2018-May-04 07:29N 17°01' W 061°46'0 0.0
2018-May-04 06:59N 17°01' W 061°46'0 0.0
2018-May-04 06:29N 17°01' W 061°46'0 0.0
2018-May-04 05:59N 17°01' W 061°46'0 0.0
2018-May-04 05:29N 17°01' W 061°46'0 0.0
2018-May-04 04:59N 17°01' W 061°46'0 0.0
2018-May-04 04:29N 17°01' W 061°46'0 0.0
2018-May-04 03:59N 17°01' W 061°46'0 0.0
2018-May-04 03:29N 17°01' W 061°46'0 0.0
2018-May-04 02:59N 17°01' W 061°46'0 0.0
2018-May-04 02:29N 17°01' W 061°46'0 0.0
2018-May-04 01:59N 17°01' W 061°46'0 0.0
2018-May-04 01:29N 17°01' W 061°46'0 0.0
2018-May-04 00:59N 17°01' W 061°46'0 0.0
2018-May-04 00:29N 17°01' W 061°46'0 0.0
2018-May-03 23:59N 17°01' W 061°46'0 0.0
2018-May-03 23:29N 17°01' W 061°46'0 0.0
2018-May-03 22:59N 17°01' W 061°46'0 0.0
2018-May-03 22:29N 17°01' W 061°46'0 0.0
2018-May-03 21:59N 17°01' W 061°46'0 0.0
2018-May-03 21:29N 17°01' W 061°46'0 0.0
2018-May-03 20:59N 17°01' W 061°46'0 0.0
2018-May-03 20:29N 17°01' W 061°46'0 0.0
2018-May-03 19:59N 17°01' W 061°46'0 0.0
2018-May-03 19:29N 17°01' W 061°46'0 0.0
2018-May-03 18:59N 17°01' W 061°46'0 0.0
2018-May-03 18:29N 17°01' W 061°46'0 0.0
2018-May-03 17:59N 17°01' W 061°46'0 0.0
2018-May-03 17:29N 17°01' W 061°46'0 0.0
2018-May-03 16:59N 17°01' W 061°46'0 0.0
2018-May-03 16:29N 17°01' W 061°46'0 0.0
2018-May-03 15:56N 17°01' W 061°46'0 0.0
2018-May-03 15:29N 17°01' W 061°46'0 0.0
2018-May-03 14:59N 17°01' W 061°46'0 0.0
2018-May-03 14:29N 17°01' W 061°46'0 0.0
2018-May-03 13:59N 17°01' W 061°46'0 0.0
2018-May-03 13:29N 17°01' W 061°46'0 0.0
2018-May-03 12:59N 17°01' W 061°46'0 0.0
2018-May-03 12:29N 17°01' W 061°46'0 0.0
2018-May-03 11:59N 17°01' W 061°46'0 0.0
2018-May-03 11:29N 17°01' W 061°46'0 0.0
2018-May-03 10:59N 17°01' W 061°46'0 0.0
2018-May-03 10:29N 17°01' W 061°46'0 0.0
2018-May-03 09:59N 17°01' W 061°46'0 0.0
2018-May-03 09:29N 17°01' W 061°46'0 0.0
2018-May-03 08:59N 17°01' W 061°46'0 0.0
2018-May-03 08:29N 17°01' W 061°46'0 0.0
2018-May-03 07:59N 17°01' W 061°46'0 0.0
2018-May-03 07:29N 17°01' W 061°46'0 0.0
2018-May-03 06:59N 17°01' W 061°46'0 0.0
2018-May-03 06:29N 17°01' W 061°46'0 0.0
2018-May-03 05:59N 17°01' W 061°46'0 0.0
2018-May-03 05:29N 17°01' W 061°46'0 0.0
2018-May-03 04:59N 17°01' W 061°46'0 0.0
2018-May-03 04:29N 17°01' W 061°46'0 0.0
2018-May-03 03:59N 17°01' W 061°46'  

Dump ship's entire track history